sensor_id;sensor_type;location;lat;lon;timestamp;P1;durP1;ratioP1;P2;durP2;ratioP2
22967;SDS011;11650;48.106;-1.696;2023-04-27T00:00:25;9.63;;;4.07;;
22967;SDS011;11650;48.106;-1.696;2023-04-27T00:02:51;13.87;;;4.13;;
22967;SDS011;11650;48.106;-1.696;2023-04-27T00:05:17;7.17;;;4.00;;
22967;SDS011;11650;48.106;-1.696;2023-04-27T00:07:42;8.90;;;4.37;;
22967;SDS011;11650;48.106;-1.696;2023-04-27T00:10:08;8.37;;;4.13;;
22967;SDS011;11650;48.106;-1.696;2023-04-27T00:12:34;7.60;;;4.07;;
22967;SDS011;11650;48.106;-1.696;2023-04-27T00:15:00;9.30;;;4.50;;
22967;SDS011;11650;48.106;-1.696;2023-04-27T00:17:25;10.83;;;4.80;;
22967;SDS011;11650;48.106;-1.696;2023-04-27T00:19:51;7.10;;;4.20;;
22967;SDS011;11650;48.106;-1.696;2023-04-27T00:22:17;8.73;;;4.30;;
22967;SDS011;11650;48.106;-1.696;2023-04-27T00:24:43;11.90;;;4.93;;
22967;SDS011;11650;48.106;-1.696;2023-04-27T00:27:08;8.47;;;4.27;;
22967;SDS011;11650;48.106;-1.696;2023-04-27T00:29:37;12.80;;;4.63;;
22967;SDS011;11650;48.106;-1.696;2023-04-27T00:32:09;8.23;;;4.07;;
22967;SDS011;11650;48.106;-1.696;2023-04-27T00:34:35;9.57;;;4.60;;
22967;SDS011;11650;48.106;-1.696;2023-04-27T00:37:01;12.20;;;5.03;;
22967;SDS011;11650;48.106;-1.696;2023-04-27T00:39:28;10.03;;;4.90;;
22967;SDS011;11650;48.106;-1.696;2023-04-27T00:41:54;12.43;;;5.07;;
22967;SDS011;11650;48.106;-1.696;2023-04-27T00:44:26;10.33;;;4.70;;
22967;SDS011;11650;48.106;-1.696;2023-04-27T00:46:52;12.03;;;5.37;;
22967;SDS011;11650;48.106;-1.696;2023-04-27T00:49:18;11.07;;;4.73;;
22967;SDS011;11650;48.106;-1.696;2023-04-27T00:51:45;11.40;;;4.80;;
22967;SDS011;11650;48.106;-1.696;2023-04-27T00:54:12;11.03;;;4.53;;
22967;SDS011;11650;48.106;-1.696;2023-04-27T00:56:43;11.00;;;5.13;;
22967;SDS011;11650;48.106;-1.696;2023-04-27T00:59:09;11.20;;;5.43;;
22967;SDS011;11650;48.106;-1.696;2023-04-27T01:01:35;11.63;;;5.37;;
22967;SDS011;11650;48.106;-1.696;2023-04-27T01:04:01;16.77;;;6.00;;
22967;SDS011;11650;48.106;-1.696;2023-04-27T01:06:26;12.80;;;5.03;;
22967;SDS011;11650;48.106;-1.696;2023-04-27T01:08:53;13.17;;;5.50;;
22967;SDS011;11650;48.106;-1.696;2023-04-27T01:11:19;14.60;;;6.07;;
22967;SDS011;11650;48.106;-1.696;2023-04-27T01:13:45;10.00;;;5.33;;
22967;SDS011;11650;48.106;-1.696;2023-04-27T01:16:11;12.23;;;5.77;;
22967;SDS011;11650;48.106;-1.696;2023-04-27T01:18:36;11.40;;;5.47;;
22967;SDS011;11650;48.106;-1.696;2023-04-27T01:21:04;14.33;;;6.00;;
22967;SDS011;11650;48.106;-1.696;2023-04-27T01:23:31;12.53;;;5.33;;
22967;SDS011;11650;48.106;-1.696;2023-04-27T01:25:56;13.47;;;5.57;;
22967;SDS011;11650;48.106;-1.696;2023-04-27T01:28:22;12.17;;;5.57;;
22967;SDS011;11650;48.106;-1.696;2023-04-27T01:30:48;14.00;;;5.83;;
22967;SDS011;11650;48.106;-1.696;2023-04-27T01:33:13;15.17;;;4.93;;
22967;SDS011;11650;48.106;-1.696;2023-04-27T01:35:39;13.40;;;5.23;;
22967;SDS011;11650;48.106;-1.696;2023-04-27T01:38:05;10.90;;;4.50;;
22967;SDS011;11650;48.106;-1.696;2023-04-27T01:40:30;15.80;;;5.83;;
22967;SDS011;11650;48.106;-1.696;2023-04-27T01:42:56;12.60;;;5.17;;
22967;SDS011;11650;48.106;-1.696;2023-04-27T01:45:21;11.83;;;5.60;;
22967;SDS011;11650;48.106;-1.696;2023-04-27T01:47:49;10.67;;;4.80;;
22967;SDS011;11650;48.106;-1.696;2023-04-27T01:50:16;13.53;;;5.20;;
22967;SDS011;11650;48.106;-1.696;2023-04-27T01:52:41;11.53;;;5.17;;
22967;SDS011;11650;48.106;-1.696;2023-04-27T01:55:07;20.67;;;5.90;;
22967;SDS011;11650;48.106;-1.696;2023-04-27T01:57:33;13.17;;;5.67;;
22967;SDS011;11650;48.106;-1.696;2023-04-27T01:59:58;20.03;;;7.17;;
22967;SDS011;11650;48.106;-1.696;2023-04-27T02:02:24;19.00;;;7.13;;
22967;SDS011;11650;48.106;-1.696;2023-04-27T02:04:50;15.63;;;6.50;;
22967;SDS011;11650;48.106;-1.696;2023-04-27T02:07:15;25.10;;;7.37;;
22967;SDS011;11650;48.106;-1.696;2023-04-27T02:09:41;23.57;;;7.83;;
22967;SDS011;11650;48.106;-1.696;2023-04-27T02:12:07;24.70;;;8.10;;
22967;SDS011;11650;48.106;-1.696;2023-04-27T02:14:32;46.10;;;8.67;;
22967;SDS011;11650;48.106;-1.696;2023-04-27T02:16:58;42.70;;;8.77;;
22967;SDS011;11650;48.106;-1.696;2023-04-27T02:19:23;32.93;;;8.67;;
22967;SDS011;11650;48.106;-1.696;2023-04-27T02:21:49;53.20;;;8.83;;
22967;SDS011;11650;48.106;-1.696;2023-04-27T02:24:16;34.87;;;9.47;;
22967;SDS011;11650;48.106;-1.696;2023-04-27T02:26:42;51.87;;;9.40;;
22967;SDS011;11650;48.106;-1.696;2023-04-27T02:29:08;70.07;;;9.37;;
22967;SDS011;11650;48.106;-1.696;2023-04-27T02:31:33;26.10;;;8.87;;
22967;SDS011;11650;48.106;-1.696;2023-04-27T02:33:59;70.50;;;9.63;;
22967;SDS011;11650;48.106;-1.696;2023-04-27T02:36:25;48.83;;;8.17;;
22967;SDS011;11650;48.106;-1.696;2023-04-27T02:38:51;80.40;;;9.77;;
22967;SDS011;11650;48.106;-1.696;2023-04-27T02:41:17;63.77;;;10.07;;
22967;SDS011;11650;48.106;-1.696;2023-04-27T02:43:43;23.87;;;8.10;;
22967;SDS011;11650;48.106;-1.696;2023-04-27T02:46:09;69.27;;;8.80;;
22967;SDS011;11650;48.106;-1.696;2023-04-27T02:48:34;48.57;;;8.67;;
22967;SDS011;11650;48.106;-1.696;2023-04-27T02:51:03;225.77;;;12.07;;
22967;SDS011;11650;48.106;-1.696;2023-04-27T02:53:29;180.53;;;11.40;;
22967;SDS011;11650;48.106;-1.696;2023-04-27T02:55:54;231.23;;;12.70;;
22967;SDS011;11650;48.106;-1.696;2023-04-27T02:58:22;115.80;;;10.63;;
22967;SDS011;11650;48.106;-1.696;2023-04-27T03:00:52;57.50;;;8.97;;
22967;SDS011;11650;48.106;-1.696;2023-04-27T03:03:18;142.87;;;10.67;;
22967;SDS011;11650;48.106;-1.696;2023-04-27T03:05:44;91.63;;;9.90;;
22967;SDS011;11650;48.106;-1.696;2023-04-27T03:08:10;113.67;;;10.33;;
22967;SDS011;11650;48.106;-1.696;2023-04-27T03:10:36;47.57;;;8.93;;
22967;SDS011;11650;48.106;-1.696;2023-04-27T03:13:01;107.87;;;10.37;;
22967;SDS011;11650;48.106;-1.696;2023-04-27T03:15:27;56.67;;;9.47;;
22967;SDS011;11650;48.106;-1.696;2023-04-27T03:17:52;43.57;;;9.90;;
22967;SDS011;11650;48.106;-1.696;2023-04-27T03:20:18;33.10;;;9.50;;
22967;SDS011;11650;48.106;-1.696;2023-04-27T03:22:45;30.03;;;9.00;;
22967;SDS011;11650;48.106;-1.696;2023-04-27T03:25:10;37.00;;;8.97;;
22967;SDS011;11650;48.106;-1.696;2023-04-27T03:27:36;137.30;;;10.27;;
22967;SDS011;11650;48.106;-1.696;2023-04-27T03:30:02;186.67;;;10.63;;
22967;SDS011;11650;48.106;-1.696;2023-04-27T03:32:28;89.70;;;9.30;;
22967;SDS011;11650;48.106;-1.696;2023-04-27T03:34:54;133.13;;;11.00;;
22967;SDS011;11650;48.106;-1.696;2023-04-27T03:37:20;73.33;;;9.37;;
22967;SDS011;11650;48.106;-1.696;2023-04-27T03:39:45;37.07;;;8.60;;
22967;SDS011;11650;48.106;-1.696;2023-04-27T03:42:11;80.60;;;9.23;;
22967;SDS011;11650;48.106;-1.696;2023-04-27T03:44:37;72.70;;;9.87;;
22967;SDS011;11650;48.106;-1.696;2023-04-27T03:47:02;67.97;;;9.00;;
22967;SDS011;11650;48.106;-1.696;2023-04-27T03:49:33;94.27;;;10.53;;
22967;SDS011;11650;48.106;-1.696;2023-04-27T03:51:59;80.13;;;10.70;;
22967;SDS011;11650;48.106;-1.696;2023-04-27T03:54:24;78.30;;;10.23;;
22967;SDS011;11650;48.106;-1.696;2023-04-27T03:56:50;42.90;;;9.20;;
22967;SDS011;11650;48.106;-1.696;2023-04-27T03:59:16;38.13;;;8.90;;
22967;SDS011;11650;48.106;-1.696;2023-04-27T04:01:42;69.00;;;9.27;;
22967;SDS011;11650;48.106;-1.696;2023-04-27T04:04:07;32.93;;;9.07;;
22967;SDS011;11650;48.106;-1.696;2023-04-27T04:06:33;46.13;;;9.17;;
22967;SDS011;11650;48.106;-1.696;2023-04-27T04:08:59;68.47;;;9.27;;
22967;SDS011;11650;48.106;-1.696;2023-04-27T04:11:25;18.10;;;7.10;;
22967;SDS011;11650;48.106;-1.696;2023-04-27T04:13:51;46.63;;;7.50;;
22967;SDS011;11650;48.106;-1.696;2023-04-27T04:16:16;95.93;;;9.73;;
22967;SDS011;11650;48.106;-1.696;2023-04-27T04:18:42;97.50;;;10.43;;
22967;SDS011;11650;48.106;-1.696;2023-04-27T04:21:08;27.30;;;8.17;;
22967;SDS011;11650;48.106;-1.696;2023-04-27T04:23:37;53.37;;;10.10;;
22967;SDS011;11650;48.106;-1.696;2023-04-27T04:26:05;42.07;;;9.73;;
22967;SDS011;11650;48.106;-1.696;2023-04-27T04:28:30;24.90;;;9.37;;
22967;SDS011;11650;48.106;-1.696;2023-04-27T04:30:56;86.30;;;10.83;;
22967;SDS011;11650;48.106;-1.696;2023-04-27T04:33:23;66.30;;;10.40;;
22967;SDS011;11650;48.106;-1.696;2023-04-27T04:35:50;28.73;;;8.67;;
22967;SDS011;11650;48.106;-1.696;2023-04-27T04:38:16;33.60;;;9.50;;
22967;SDS011;11650;48.106;-1.696;2023-04-27T04:40:41;41.97;;;9.30;;
22967;SDS011;11650;48.106;-1.696;2023-04-27T04:43:07;35.23;;;8.83;;
22967;SDS011;11650;48.106;-1.696;2023-04-27T04:45:33;23.33;;;7.57;;
22967;SDS011;11650;48.106;-1.696;2023-04-27T04:47:58;17.37;;;6.80;;
22967;SDS011;11650;48.106;-1.696;2023-04-27T04:50:28;23.27;;;7.13;;
22967;SDS011;11650;48.106;-1.696;2023-04-27T04:52:53;36.27;;;7.40;;
22967;SDS011;11650;48.106;-1.696;2023-04-27T04:55:19;24.13;;;6.57;;
22967;SDS011;11650;48.106;-1.696;2023-04-27T04:57:45;32.40;;;6.07;;
22967;SDS011;11650;48.106;-1.696;2023-04-27T05:00:11;24.97;;;6.00;;
22967;SDS011;11650;48.106;-1.696;2023-04-27T05:02:38;15.27;;;5.30;;
22967;SDS011;11650;48.106;-1.696;2023-04-27T05:05:04;11.93;;;5.00;;
22967;SDS011;11650;48.106;-1.696;2023-04-27T05:07:30;9.03;;;5.10;;
22967;SDS011;11650;48.106;-1.696;2023-04-27T05:09:57;12.70;;;5.10;;
22967;SDS011;11650;48.106;-1.696;2023-04-27T05:12:22;16.77;;;5.50;;
22967;SDS011;11650;48.106;-1.696;2023-04-27T05:14:49;6.90;;;4.90;;
22967;SDS011;11650;48.106;-1.696;2023-04-27T05:17:15;10.17;;;5.23;;
22967;SDS011;11650;48.106;-1.696;2023-04-27T05:19:41;13.50;;;5.50;;
22967;SDS011;11650;48.106;-1.696;2023-04-27T05:22:06;16.50;;;6.20;;
22967;SDS011;11650;48.106;-1.696;2023-04-27T05:24:32;13.20;;;6.77;;
22967;SDS011;11650;48.106;-1.696;2023-04-27T05:26:58;44.00;;;6.47;;
22967;SDS011;11650;48.106;-1.696;2023-04-27T05:29:23;27.00;;;6.70;;
22967;SDS011;11650;48.106;-1.696;2023-04-27T05:31:49;12.23;;;6.30;;
22967;SDS011;11650;48.106;-1.696;2023-04-27T05:34:15;22.63;;;7.17;;
22967;SDS011;11650;48.106;-1.696;2023-04-27T05:36:41;15.33;;;6.70;;
22967;SDS011;11650;48.106;-1.696;2023-04-27T05:39:07;27.33;;;6.93;;
22967;SDS011;11650;48.106;-1.696;2023-04-27T05:41:32;21.30;;;7.00;;
22967;SDS011;11650;48.106;-1.696;2023-04-27T05:43:58;13.00;;;7.10;;
22967;SDS011;11650;48.106;-1.696;2023-04-27T05:46:23;14.10;;;6.90;;
22967;SDS011;11650;48.106;-1.696;2023-04-27T05:48:49;21.40;;;6.77;;
22967;SDS011;11650;48.106;-1.696;2023-04-27T05:51:15;23.13;;;6.53;;
22967;SDS011;11650;48.106;-1.696;2023-04-27T05:53:41;20.73;;;6.30;;
22967;SDS011;11650;48.106;-1.696;2023-04-27T05:56:06;13.33;;;5.80;;
22967;SDS011;11650;48.106;-1.696;2023-04-27T05:58:32;12.33;;;5.87;;
22967;SDS011;11650;48.106;-1.696;2023-04-27T06:00:59;10.97;;;5.63;;
22967;SDS011;11650;48.106;-1.696;2023-04-27T06:03:25;10.73;;;5.53;;
22967;SDS011;11650;48.106;-1.696;2023-04-27T06:05:54;14.40;;;5.57;;
22967;SDS011;11650;48.106;-1.696;2023-04-27T06:08:20;10.13;;;4.77;;
22967;SDS011;11650;48.106;-1.696;2023-04-27T06:10:46;9.43;;;5.40;;
22967;SDS011;11650;48.106;-1.696;2023-04-27T06:13:12;14.90;;;5.70;;
22967;SDS011;11650;48.106;-1.696;2023-04-27T06:15:37;17.47;;;5.20;;
22967;SDS011;11650;48.106;-1.696;2023-04-27T06:18:03;16.47;;;5.23;;
22967;SDS011;11650;48.106;-1.696;2023-04-27T06:20:29;6.50;;;4.53;;
22967;SDS011;11650;48.106;-1.696;2023-04-27T06:22:56;9.30;;;5.17;;
22967;SDS011;11650;48.106;-1.696;2023-04-27T06:25:22;10.13;;;5.30;;
22967;SDS011;11650;48.106;-1.696;2023-04-27T06:27:48;13.60;;;5.47;;
22967;SDS011;11650;48.106;-1.696;2023-04-27T06:30:13;7.67;;;4.70;;
22967;SDS011;11650;48.106;-1.696;2023-04-27T06:32:39;9.03;;;5.13;;
22967;SDS011;11650;48.106;-1.696;2023-04-27T06:35:05;7.87;;;4.47;;
22967;SDS011;11650;48.106;-1.696;2023-04-27T06:37:31;8.53;;;4.60;;
22967;SDS011;11650;48.106;-1.696;2023-04-27T06:39:56;6.97;;;4.23;;
22967;SDS011;11650;48.106;-1.696;2023-04-27T06:42:22;6.50;;;4.47;;
22967;SDS011;11650;48.106;-1.696;2023-04-27T06:44:47;7.53;;;4.70;;
22967;SDS011;11650;48.106;-1.696;2023-04-27T06:47:13;6.57;;;4.37;;
22967;SDS011;11650;48.106;-1.696;2023-04-27T06:49:39;7.80;;;4.47;;
22967;SDS011;11650;48.106;-1.696;2023-04-27T06:52:05;7.00;;;4.67;;
22967;SDS011;11650;48.106;-1.696;2023-04-27T06:54:31;6.77;;;4.30;;
22967;SDS011;11650;48.106;-1.696;2023-04-27T06:56:56;8.20;;;4.40;;
22967;SDS011;11650;48.106;-1.696;2023-04-27T06:59:22;7.40;;;4.50;;
22967;SDS011;11650;48.106;-1.696;2023-04-27T07:01:47;9.10;;;5.00;;
22967;SDS011;11650;48.106;-1.696;2023-04-27T07:04:13;8.07;;;4.77;;
22967;SDS011;11650;48.106;-1.696;2023-04-27T07:06:39;6.33;;;4.40;;
22967;SDS011;11650;48.106;-1.696;2023-04-27T07:09:05;6.40;;;4.43;;
22967;SDS011;11650;48.106;-1.696;2023-04-27T07:11:30;6.97;;;4.47;;
22967;SDS011;11650;48.106;-1.696;2023-04-27T07:13:56;6.77;;;4.57;;
22967;SDS011;11650;48.106;-1.696;2023-04-27T07:16:22;7.17;;;4.50;;
22967;SDS011;11650;48.106;-1.696;2023-04-27T07:18:47;6.30;;;4.50;;
22967;SDS011;11650;48.106;-1.696;2023-04-27T07:21:13;9.57;;;5.00;;
22967;SDS011;11650;48.106;-1.696;2023-04-27T07:23:39;9.67;;;4.80;;
22967;SDS011;11650;48.106;-1.696;2023-04-27T07:26:07;8.33;;;5.50;;
22967;SDS011;11650;48.106;-1.696;2023-04-27T07:28:34;9.67;;;5.50;;
22967;SDS011;11650;48.106;-1.696;2023-04-27T07:31:00;8.53;;;5.10;;
22967;SDS011;11650;48.106;-1.696;2023-04-27T07:33:28;6.57;;;4.47;;
22967;SDS011;11650;48.106;-1.696;2023-04-27T07:35:54;6.23;;;4.90;;
22967;SDS011;11650;48.106;-1.696;2023-04-27T07:38:20;7.80;;;4.80;;
22967;SDS011;11650;48.106;-1.696;2023-04-27T07:40:47;7.50;;;4.50;;
22967;SDS011;11650;48.106;-1.696;2023-04-27T07:43:14;10.30;;;5.57;;
22967;SDS011;11650;48.106;-1.696;2023-04-27T07:45:40;7.87;;;5.33;;
22967;SDS011;11650;48.106;-1.696;2023-04-27T07:48:06;8.93;;;5.80;;
22967;SDS011;11650;48.106;-1.696;2023-04-27T07:50:32;11.40;;;6.30;;
22967;SDS011;11650;48.106;-1.696;2023-04-27T07:52:58;12.23;;;6.50;;
22967;SDS011;11650;48.106;-1.696;2023-04-27T07:55:24;11.80;;;7.50;;
22967;SDS011;11650;48.106;-1.696;2023-04-27T07:57:53;12.40;;;6.70;;
22967;SDS011;11650;48.106;-1.696;2023-04-27T08:00:20;13.30;;;6.70;;
22967;SDS011;11650;48.106;-1.696;2023-04-27T08:02:47;9.90;;;6.60;;
22967;SDS011;11650;48.106;-1.696;2023-04-27T08:05:13;14.27;;;8.23;;
22967;SDS011;11650;48.106;-1.696;2023-04-27T08:07:39;14.53;;;8.00;;
22967;SDS011;11650;48.106;-1.696;2023-04-27T08:10:05;14.20;;;7.10;;
22967;SDS011;11650;48.106;-1.696;2023-04-27T08:12:32;12.53;;;7.83;;
22967;SDS011;11650;48.106;-1.696;2023-04-27T08:14:58;11.20;;;7.43;;
22967;SDS011;11650;48.106;-1.696;2023-04-27T08:17:23;12.30;;;7.20;;
22967;SDS011;11650;48.106;-1.696;2023-04-27T08:19:49;11.97;;;7.20;;
22967;SDS011;11650;48.106;-1.696;2023-04-27T08:22:15;10.77;;;6.90;;
22967;SDS011;11650;48.106;-1.696;2023-04-27T08:24:40;11.23;;;7.23;;
22967;SDS011;11650;48.106;-1.696;2023-04-27T08:27:06;11.10;;;7.80;;
22967;SDS011;11650;48.106;-1.696;2023-04-27T08:29:32;11.23;;;7.70;;
22967;SDS011;11650;48.106;-1.696;2023-04-27T08:31:59;12.07;;;7.27;;
22967;SDS011;11650;48.106;-1.696;2023-04-27T08:34:28;12.27;;;7.60;;
22967;SDS011;11650;48.106;-1.696;2023-04-27T08:36:55;10.70;;;6.93;;
22967;SDS011;11650;48.106;-1.696;2023-04-27T08:39:21;13.10;;;7.83;;
22967;SDS011;11650;48.106;-1.696;2023-04-27T08:41:47;11.63;;;7.70;;
22967;SDS011;11650;48.106;-1.696;2023-04-27T08:44:13;10.83;;;7.33;;
22967;SDS011;11650;48.106;-1.696;2023-04-27T08:46:38;11.13;;;7.53;;
22967;SDS011;11650;48.106;-1.696;2023-04-27T08:49:04;11.67;;;7.70;;
22967;SDS011;11650;48.106;-1.696;2023-04-27T08:51:31;9.87;;;6.83;;
22967;SDS011;11650;48.106;-1.696;2023-04-27T08:53:57;12.67;;;7.13;;
22967;SDS011;11650;48.106;-1.696;2023-04-27T08:56:26;13.57;;;8.57;;
22967;SDS011;11650;48.106;-1.696;2023-04-27T08:58:54;11.10;;;7.40;;
22967;SDS011;11650;48.106;-1.696;2023-04-27T09:01:21;10.70;;;6.83;;
22967;SDS011;11650;48.106;-1.696;2023-04-27T09:03:48;11.73;;;7.40;;
22967;SDS011;11650;48.106;-1.696;2023-04-27T09:06:27;10.33;;;7.20;;
22967;SDS011;11650;48.106;-1.696;2023-04-27T09:08:55;11.77;;;7.23;;
22967;SDS011;11650;48.106;-1.696;2023-04-27T09:11:30;12.60;;;8.33;;
22967;SDS011;11650;48.106;-1.696;2023-04-27T09:13:59;11.43;;;7.97;;
22967;SDS011;11650;48.106;-1.696;2023-04-27T09:16:27;13.67;;;8.40;;
22967;SDS011;11650;48.106;-1.696;2023-04-27T09:18:54;12.03;;;7.70;;
22967;SDS011;11650;48.106;-1.696;2023-04-27T09:21:27;13.90;;;8.83;;
22967;SDS011;11650;48.106;-1.696;2023-04-27T09:23:55;14.70;;;8.83;;
22967;SDS011;11650;48.106;-1.696;2023-04-27T09:26:25;12.57;;;9.03;;
22967;SDS011;11650;48.106;-1.696;2023-04-27T09:28:54;13.57;;;8.10;;
22967;SDS011;11650;48.106;-1.696;2023-04-27T09:31:32;14.90;;;9.27;;
22967;SDS011;11650;48.106;-1.696;2023-04-27T09:33:58;12.83;;;8.53;;
22967;SDS011;11650;48.106;-1.696;2023-04-27T09:36:24;13.37;;;9.10;;
22967;SDS011;11650;48.106;-1.696;2023-04-27T09:38:50;14.30;;;8.70;;
22967;SDS011;11650;48.106;-1.696;2023-04-27T09:41:17;11.77;;;8.40;;
22967;SDS011;11650;48.106;-1.696;2023-04-27T09:43:43;14.00;;;8.50;;
22967;SDS011;11650;48.106;-1.696;2023-04-27T09:46:10;15.50;;;8.57;;
22967;SDS011;11650;48.106;-1.696;2023-04-27T09:48:40;14.50;;;8.40;;
22967;SDS011;11650;48.106;-1.696;2023-04-27T09:51:06;11.60;;;8.03;;
22967;SDS011;11650;48.106;-1.696;2023-04-27T09:53:54;11.87;;;8.60;;
22967;SDS011;11650;48.106;-1.696;2023-04-27T10:02:14;12.07;;;8.00;;
22967;SDS011;11650;48.106;-1.696;2023-04-27T10:05:15;11.37;;;8.20;;
22967;SDS011;11650;48.106;-1.696;2023-04-27T10:07:45;12.10;;;8.17;;
22967;SDS011;11650;48.106;-1.696;2023-04-27T10:10:15;12.00;;;8.70;;
22967;SDS011;11650;48.106;-1.696;2023-04-27T10:12:54;10.33;;;7.67;;
22967;SDS011;11650;48.106;-1.696;2023-04-27T10:15:24;10.27;;;7.03;;
22967;SDS011;11650;48.106;-1.696;2023-04-27T10:17:52;10.47;;;7.83;;
22967;SDS011;11650;48.106;-1.696;2023-04-27T10:20:34;9.20;;;7.40;;
22967;SDS011;11650;48.106;-1.696;2023-04-27T10:23:00;12.70;;;8.50;;
22967;SDS011;11650;48.106;-1.696;2023-04-27T10:25:36;10.00;;;6.90;;
22967;SDS011;11650;48.106;-1.696;2023-04-27T10:28:05;8.07;;;6.27;;
22967;SDS011;11650;48.106;-1.696;2023-04-27T10:30:35;8.70;;;6.70;;
22967;SDS011;11650;48.106;-1.696;2023-04-27T10:33:07;7.37;;;5.87;;
22967;SDS011;11650;48.106;-1.696;2023-04-27T10:35:44;7.30;;;5.80;;
22967;SDS011;11650;48.106;-1.696;2023-04-27T10:38:19;8.27;;;6.60;;
22967;SDS011;11650;48.106;-1.696;2023-04-27T10:40:54;8.67;;;6.80;;
22967;SDS011;11650;48.106;-1.696;2023-04-27T10:43:27;8.17;;;5.93;;
22967;SDS011;11650;48.106;-1.696;2023-04-27T10:46:16;9.00;;;6.70;;
22967;SDS011;11650;48.106;-1.696;2023-04-27T10:48:41;7.57;;;6.33;;
22967;SDS011;11650;48.106;-1.696;2023-04-27T10:51:08;7.93;;;6.13;;
22967;SDS011;11650;48.106;-1.696;2023-04-27T10:53:36;9.43;;;6.60;;
22967;SDS011;11650;48.106;-1.696;2023-04-27T10:56:02;7.50;;;5.67;;
22967;SDS011;11650;48.106;-1.696;2023-04-27T10:58:31;7.20;;;5.70;;
22967;SDS011;11650;48.106;-1.696;2023-04-27T11:00:57;5.97;;;4.87;;
22967;SDS011;11650;48.106;-1.696;2023-04-27T11:03:23;8.63;;;5.67;;
22967;SDS011;11650;48.106;-1.696;2023-04-27T11:05:59;8.30;;;5.47;;
22967;SDS011;11650;48.106;-1.696;2023-04-27T11:08:28;6.83;;;5.80;;
22967;SDS011;11650;48.106;-1.696;2023-04-27T11:10:54;6.23;;;5.50;;
22967;SDS011;11650;48.106;-1.696;2023-04-27T11:13:24;7.40;;;5.90;;
22967;SDS011;11650;48.106;-1.696;2023-04-27T11:18:20;5.70;;;5.00;;
22967;SDS011;11650;48.106;-1.696;2023-04-27T11:20:48;5.87;;;4.70;;
22967;SDS011;11650;48.106;-1.696;2023-04-27T11:23:25;7.23;;;5.07;;
22967;SDS011;11650;48.106;-1.696;2023-04-27T11:25:56;5.70;;;5.10;;
22967;SDS011;11650;48.106;-1.696;2023-04-27T11:28:22;6.60;;;5.40;;
22967;SDS011;11650;48.106;-1.696;2023-04-27T11:30:55;6.73;;;5.00;;
22967;SDS011;11650;48.106;-1.696;2023-04-27T11:33:21;6.87;;;4.73;;
22967;SDS011;11650;48.106;-1.696;2023-04-27T11:35:47;5.00;;;4.00;;
22967;SDS011;11650;48.106;-1.696;2023-04-27T11:38:16;5.43;;;3.83;;
22967;SDS011;11650;48.106;-1.696;2023-04-27T11:40:46;5.80;;;4.17;;
22967;SDS011;11650;48.106;-1.696;2023-04-27T11:43:24;3.87;;;3.33;;
22967;SDS011;11650;48.106;-1.696;2023-04-27T11:45:50;5.27;;;4.43;;
22967;SDS011;11650;48.106;-1.696;2023-04-27T11:48:16;5.27;;;4.30;;
22967;SDS011;11650;48.106;-1.696;2023-04-27T11:50:45;4.13;;;3.67;;
22967;SDS011;11650;48.106;-1.696;2023-04-27T11:53:12;4.93;;;3.63;;
22967;SDS011;11650;48.106;-1.696;2023-04-27T11:55:38;5.00;;;3.73;;
22967;SDS011;11650;48.106;-1.696;2023-04-27T11:58:05;4.80;;;3.63;;
22967;SDS011;11650;48.106;-1.696;2023-04-27T12:00:37;4.00;;;3.50;;
22967;SDS011;11650;48.106;-1.696;2023-04-27T12:03:02;4.87;;;4.20;;
22967;SDS011;11650;48.106;-1.696;2023-04-27T12:05:28;5.20;;;3.90;;
22967;SDS011;11650;48.106;-1.696;2023-04-27T12:07:54;4.90;;;4.40;;
22967;SDS011;11650;48.106;-1.696;2023-04-27T12:10:19;5.17;;;4.30;;
22967;SDS011;11650;48.106;-1.696;2023-04-27T12:12:45;5.03;;;4.57;;
22967;SDS011;11650;48.106;-1.696;2023-04-27T12:15:11;5.43;;;4.07;;
22967;SDS011;11650;48.106;-1.696;2023-04-27T12:17:37;5.13;;;4.63;;
22967;SDS011;11650;48.106;-1.696;2023-04-27T12:20:03;5.80;;;5.03;;
22967;SDS011;11650;48.106;-1.696;2023-04-27T12:22:30;5.93;;;5.33;;
22967;SDS011;11650;48.106;-1.696;2023-04-27T12:24:55;6.37;;;5.40;;
22967;SDS011;11650;48.106;-1.696;2023-04-27T12:27:21;6.03;;;5.50;;
22967;SDS011;11650;48.106;-1.696;2023-04-27T12:29:47;7.53;;;6.30;;
22967;SDS011;11650;48.106;-1.696;2023-04-27T12:32:12;6.47;;;5.70;;
22967;SDS011;11650;48.106;-1.696;2023-04-27T12:34:38;7.17;;;5.67;;
22967;SDS011;11650;48.106;-1.696;2023-04-27T12:37:04;8.87;;;7.03;;
22967;SDS011;11650;48.106;-1.696;2023-04-27T12:39:30;7.20;;;6.13;;
22967;SDS011;11650;48.106;-1.696;2023-04-27T12:41:56;7.77;;;6.47;;
22967;SDS011;11650;48.106;-1.696;2023-04-27T12:44:22;6.67;;;6.00;;
22967;SDS011;11650;48.106;-1.696;2023-04-27T12:46:48;6.43;;;5.83;;
22967;SDS011;11650;48.106;-1.696;2023-04-27T12:49:14;6.17;;;5.57;;
22967;SDS011;11650;48.106;-1.696;2023-04-27T12:51:41;7.53;;;6.10;;
22967;SDS011;11650;48.106;-1.696;2023-04-27T12:54:07;7.20;;;5.43;;
22967;SDS011;11650;48.106;-1.696;2023-04-27T12:56:34;6.13;;;5.50;;
22967;SDS011;11650;48.106;-1.696;2023-04-27T12:59:00;7.00;;;6.30;;
22967;SDS011;11650;48.106;-1.696;2023-04-27T13:01:26;6.37;;;5.77;;
22967;SDS011;11650;48.106;-1.696;2023-04-27T13:03:57;6.20;;;5.60;;
22967;SDS011;11650;48.106;-1.696;2023-04-27T13:06:25;8.17;;;6.50;;
22967;SDS011;11650;48.106;-1.696;2023-04-27T13:08:51;7.80;;;6.07;;
22967;SDS011;11650;48.106;-1.696;2023-04-27T13:11:17;6.00;;;5.43;;
22967;SDS011;11650;48.106;-1.696;2023-04-27T13:13:43;5.73;;;5.23;;
22967;SDS011;11650;48.106;-1.696;2023-04-27T13:16:09;5.77;;;5.27;;
22967;SDS011;11650;48.106;-1.696;2023-04-27T13:18:38;5.27;;;4.77;;
22967;SDS011;11650;48.106;-1.696;2023-04-27T13:21:06;4.83;;;4.30;;
22967;SDS011;11650;48.106;-1.696;2023-04-27T13:23:32;4.70;;;4.20;;
22967;SDS011;11650;48.106;-1.696;2023-04-27T13:25:58;4.30;;;3.50;;
22967;SDS011;11650;48.106;-1.696;2023-04-27T13:28:24;4.40;;;4.00;;
22967;SDS011;11650;48.106;-1.696;2023-04-27T13:30:50;4.07;;;3.60;;
22967;SDS011;11650;48.106;-1.696;2023-04-27T13:33:16;4.97;;;3.30;;
22967;SDS011;11650;48.106;-1.696;2023-04-27T13:35:41;3.67;;;3.37;;
22967;SDS011;11650;48.106;-1.696;2023-04-27T13:38:07;3.50;;;3.20;;
22967;SDS011;11650;48.106;-1.696;2023-04-27T13:40:33;4.00;;;3.60;;
22967;SDS011;11650;48.106;-1.696;2023-04-27T13:42:59;3.73;;;3.00;;
22967;SDS011;11650;48.106;-1.696;2023-04-27T13:45:24;3.73;;;3.27;;
22967;SDS011;11650;48.106;-1.696;2023-04-27T13:47:50;3.27;;;2.83;;
22967;SDS011;11650;48.106;-1.696;2023-04-27T13:50:16;3.17;;;2.60;;
22967;SDS011;11650;48.106;-1.696;2023-04-27T13:52:42;3.40;;;3.10;;
22967;SDS011;11650;48.106;-1.696;2023-04-27T13:55:08;3.83;;;3.10;;
22967;SDS011;11650;48.106;-1.696;2023-04-27T13:57:35;3.23;;;2.93;;
22967;SDS011;11650;48.106;-1.696;2023-04-27T14:00:01;3.77;;;3.47;;
22967;SDS011;11650;48.106;-1.696;2023-04-27T14:02:28;4.33;;;3.53;;
22967;SDS011;11650;48.106;-1.696;2023-04-27T14:04:54;3.60;;;3.30;;
22967;SDS011;11650;48.106;-1.696;2023-04-27T14:07:20;3.83;;;3.27;;
22967;SDS011;11650;48.106;-1.696;2023-04-27T14:09:46;3.97;;;2.87;;
22967;SDS011;11650;48.106;-1.696;2023-04-27T14:12:12;3.10;;;2.80;;
22967;SDS011;11650;48.106;-1.696;2023-04-27T14:14:38;3.67;;;3.37;;
22967;SDS011;11650;48.106;-1.696;2023-04-27T14:17:04;7.00;;;4.70;;
22967;SDS011;11650;48.106;-1.696;2023-04-27T14:19:30;4.70;;;3.97;;
22967;SDS011;11650;48.106;-1.696;2023-04-27T14:21:56;6.17;;;3.70;;
22967;SDS011;11650;48.106;-1.696;2023-04-27T14:24:23;3.93;;;2.70;;
22967;SDS011;11650;48.106;-1.696;2023-04-27T14:26:48;4.93;;;3.13;;
22967;SDS011;11650;48.106;-1.696;2023-04-27T14:29:15;4.53;;;3.40;;
22967;SDS011;11650;48.106;-1.696;2023-04-27T14:31:41;3.00;;;2.80;;